sensor_id;sensor_type;location;lat;lon;timestamp;pressure;altitude;pressure_sealevel;temperature;humidity
74659;BME280;63186;51.204;6.536;2024-03-08T00:01:52;101330.00;;;1.99;95.80
74659;BME280;63186;51.204;6.536;2024-03-08T00:04:18;101322.34;;;1.96;95.98
74659;BME280;63186;51.204;6.536;2024-03-08T00:06:43;101319.25;;;1.93;97.21
74659;BME280;63186;51.204;6.536;2024-03-08T00:09:13;101316.44;;;1.87;96.81
74659;BME280;63186;51.204;6.536;2024-03-08T00:11:39;101316.31;;;1.94;96.19
74659;BME280;63186;51.204;6.536;2024-03-08T00:14:04;101318.81;;;1.96;96.09
74659;BME280;63186;51.204;6.536;2024-03-08T00:16:32;101316.41;;;1.99;95.32
74659;BME280;63186;51.204;6.536;2024-03-08T00:18:58;101320.06;;;2.05;94.75
74659;BME280;63186;51.204;6.536;2024-03-08T00:21:23;101312.38;;;2.02;94.68
74659;BME280;63186;51.204;6.536;2024-03-08T00:23:49;101315.47;;;1.94;95.87
74659;BME280;63186;51.204;6.536;2024-03-08T00:26:14;101307.72;;;1.85;96.25
74659;BME280;63186;51.204;6.536;2024-03-08T00:28:40;101305.28;;;1.72;97.23
74659;BME280;63186;51.204;6.536;2024-03-08T00:31:05;101298.78;;;1.73;97.32
74659;BME280;63186;51.204;6.536;2024-03-08T00:33:32;101301.63;;;1.67;98.20
74659;BME280;63186;51.204;6.536;2024-03-08T00:35:57;101299.59;;;1.62;97.87
74659;BME280;63186;51.204;6.536;2024-03-08T00:38:23;101299.97;;;1.66;97.74
74659;BME280;63186;51.204;6.536;2024-03-08T00:40:48;101298.31;;;1.65;97.55
74659;BME280;63186;51.204;6.536;2024-03-08T00:43:13;101299.72;;;1.67;97.94
74659;BME280;63186;51.204;6.536;2024-03-08T00:45:39;101291.59;;;1.55;98.79
74659;BME280;63186;51.204;6.536;2024-03-08T00:48:08;101284.75;;;1.53;98.48
74659;BME280;63186;51.204;6.536;2024-03-08T00:50:33;101286.78;;;1.46;98.99
74659;BME280;63186;51.204;6.536;2024-03-08T00:52:59;101277.81;;;1.45;99.13
74659;BME280;63186;51.204;6.536;2024-03-08T00:55:25;101277.34;;;1.48;99.17
74659;BME280;63186;51.204;6.536;2024-03-08T00:57:50;101267.22;;;1.44;99.15
74659;BME280;63186;51.204;6.536;2024-03-08T01:00:16;101276.63;;;1.41;99.88
74659;BME280;63186;51.204;6.536;2024-03-08T01:02:42;101269.94;;;1.44;98.82
74659;BME280;63186;51.204;6.536;2024-03-08T01:05:07;101266.72;;;1.47;99.19
74659;BME280;63186;51.204;6.536;2024-03-08T01:07:34;101271.09;;;1.48;98.75
74659;BME280;63186;51.204;6.536;2024-03-08T01:10:00;101273.09;;;1.52;97.49
74659;BME280;63186;51.204;6.536;2024-03-08T01:12:26;101269.44;;;1.58;96.83
74659;BME280;63186;51.204;6.536;2024-03-08T01:14:51;101255.84;;;1.58;96.25
74659;BME280;63186;51.204;6.536;2024-03-08T01:17:17;101256.44;;;1.60;96.41
74659;BME280;63186;51.204;6.536;2024-03-08T01:19:42;101252.53;;;1.56;96.54
74659;BME280;63186;51.204;6.536;2024-03-08T01:22:10;101247.47;;;1.60;95.62
74659;BME280;63186;51.204;6.536;2024-03-08T01:24:35;101247.81;;;1.63;95.61
74659;BME280;63186;51.204;6.536;2024-03-08T01:27:00;101250.28;;;1.65;95.60
74659;BME280;63186;51.204;6.536;2024-03-08T01:29:27;101244.41;;;1.56;96.09
74659;BME280;63186;51.204;6.536;2024-03-08T01:31:55;101237.69;;;1.59;95.28
74659;BME280;63186;51.204;6.536;2024-03-08T01:34:21;101236.88;;;1.58;95.11
74659;BME280;63186;51.204;6.536;2024-03-08T01:36:46;101238.25;;;1.61;95.39
74659;BME280;63186;51.204;6.536;2024-03-08T01:39:12;101233.78;;;1.55;96.30
74659;BME280;63186;51.204;6.536;2024-03-08T01:41:37;101234.59;;;1.55;95.25
74659;BME280;63186;51.204;6.536;2024-03-08T01:44:03;101235.94;;;1.53;96.28
74659;BME280;63186;51.204;6.536;2024-03-08T01:46:28;101232.72;;;1.56;95.57
74659;BME280;63186;51.204;6.536;2024-03-08T01:48:54;101226.00;;;1.58;95.06
74659;BME280;63186;51.204;6.536;2024-03-08T01:51:20;101223.53;;;1.57;94.93
74659;BME280;63186;51.204;6.536;2024-03-08T01:53:46;101226.47;;;1.55;95.40
74659;BME280;63186;51.204;6.536;2024-03-08T01:56:13;101229.19;;;1.55;95.11
74659;BME280;63186;51.204;6.536;2024-03-08T01:58:40;101209.63;;;1.53;95.26
74659;BME280;63186;51.204;6.536;2024-03-08T02:01:07;101218.00;;;1.52;95.81
74659;BME280;63186;51.204;6.536;2024-03-08T02:03:34;101213.28;;;1.47;95.53
74659;BME280;63186;51.204;6.536;2024-03-08T02:05:59;101206.78;;;1.48;95.86
74659;BME280;63186;51.204;6.536;2024-03-08T02:08:25;101205.84;;;1.43;95.44
74659;BME280;63186;51.204;6.536;2024-03-08T02:10:50;101203.75;;;1.45;95.69
74659;BME280;63186;51.204;6.536;2024-03-08T02:13:16;101206.22;;;1.46;95.22
74659;BME280;63186;51.204;6.536;2024-03-08T02:15:55;101197.00;;;1.47;95.08
74659;BME280;63186;51.204;6.536;2024-03-08T02:18:22;101196.81;;;1.37;96.09
74659;BME280;63186;51.204;6.536;2024-03-08T02:21:01;101190.44;;;1.31;96.55
74659;BME280;63186;51.204;6.536;2024-03-08T02:23:27;101199.03;;;1.28;96.52
74659;BME280;63186;51.204;6.536;2024-03-08T02:25:54;101186.81;;;1.14;97.51
74659;BME280;63186;51.204;6.536;2024-03-08T02:28:20;101189.28;;;1.04;97.84
74659;BME280;63186;51.204;6.536;2024-03-08T02:30:46;101188.81;;;1.07;98.95
74659;BME280;63186;51.204;6.536;2024-03-08T02:33:16;101188.59;;;1.08;98.58
74659;BME280;63186;51.204;6.536;2024-03-08T02:35:42;101185.03;;;1.08;98.84
74659;BME280;63186;51.204;6.536;2024-03-08T02:38:11;101182.91;;;1.10;98.99
74659;BME280;63186;51.204;6.536;2024-03-08T02:40:36;101189.06;;;1.05;99.54
74659;BME280;63186;51.204;6.536;2024-03-08T02:43:01;101175.03;;;0.97;99.77
74659;BME280;63186;51.204;6.536;2024-03-08T02:45:27;101175.84;;;0.97;99.26
74659;BME280;63186;51.204;6.536;2024-03-08T02:47:52;101168.91;;;1.01;98.92
74659;BME280;63186;51.204;6.536;2024-03-08T02:50:18;101163.03;;;0.93;99.76
74659;BME280;63186;51.204;6.536;2024-03-08T02:52:43;101161.97;;;0.82;100.00
74659;BME280;63186;51.204;6.536;2024-03-08T02:55:09;101159.25;;;0.82;100.00
74659;BME280;63186;51.204;6.536;2024-03-08T02:57:36;101153.63;;;0.72;100.00
74659;BME280;63186;51.204;6.536;2024-03-08T03:00:02;101159.03;;;0.72;100.00
74659;BME280;63186;51.204;6.536;2024-03-08T03:02:27;101151.72;;;0.72;100.00
74659;BME280;63186;51.204;6.536;2024-03-08T03:04:52;101147.00;;;0.68;100.00
74659;BME280;63186;51.204;6.536;2024-03-08T03:07:18;101150.91;;;0.60;100.00
74659;BME280;63186;51.204;6.536;2024-03-08T03:09:44;101154.19;;;0.62;100.00
74659;BME280;63186;51.204;6.536;2024-03-08T03:12:10;101148.78;;;0.62;100.00
74659;BME280;63186;51.204;6.536;2024-03-08T03:14:35;101151.13;;;0.59;100.00
74659;BME280;63186;51.204;6.536;2024-03-08T03:17:04;101144.19;;;0.63;100.00
74659;BME280;63186;51.204;6.536;2024-03-08T03:19:29;101145.81;;;0.64;100.00
74659;BME280;63186;51.204;6.536;2024-03-08T03:21:55;101148.66;;;0.57;100.00
74659;BME280;63186;51.204;6.536;2024-03-08T03:24:20;101131.31;;;0.58;100.00
74659;BME280;63186;51.204;6.536;2024-03-08T03:26:46;101147.38;;;0.60;100.00
74659;BME280;63186;51.204;6.536;2024-03-08T03:29:13;101143.47;;;0.56;100.00
74659;BME280;63186;51.204;6.536;2024-03-08T03:31:39;101135.22;;;0.62;100.00
74659;BME280;63186;51.204;6.536;2024-03-08T03:34:05;101135.59;;;0.66;100.00
74659;BME280;63186;51.204;6.536;2024-03-08T03:36:34;101139.00;;;0.73;100.00
74659;BME280;63186;51.204;6.536;2024-03-08T03:39:00;101134.16;;;0.75;100.00
74659;BME280;63186;51.204;6.536;2024-03-08T03:41:36;101126.16;;;0.68;100.00
74659;BME280;63186;51.204;6.536;2024-03-08T03:44:01;101133.59;;;0.73;100.00
74659;BME280;63186;51.204;6.536;2024-03-08T03:46:27;101130.63;;;0.74;100.00
74659;BME280;63186;51.204;6.536;2024-03-08T03:48:55;101125.47;;;0.73;100.00
74659;BME280;63186;51.204;6.536;2024-03-08T03:51:21;101125.91;;;0.70;100.00
74659;BME280;63186;51.204;6.536;2024-03-08T03:53:46;101121.81;;;0.67;100.00
74659;BME280;63186;51.204;6.536;2024-03-08T03:56:12;101119.66;;;0.58;100.00
74659;BME280;63186;51.204;6.536;2024-03-08T03:58:37;101122.28;;;0.52;100.00
74659;BME280;63186;51.204;6.536;2024-03-08T04:01:04;101120.16;;;0.54;100.00
74659;BME280;63186;51.204;6.536;2024-03-08T04:03:30;101122.75;;;0.49;100.00
74659;BME280;63186;51.204;6.536;2024-03-08T04:05:55;101117.91;;;0.51;100.00
74659;BME280;63186;51.204;6.536;2024-03-08T04:08:20;101115.69;;;0.48;100.00
74659;BME280;63186;51.204;6.536;2024-03-08T04:10:46;101118.97;;;0.50;100.00
74659;BME280;63186;51.204;6.536;2024-03-08T04:13:11;101117.31;;;0.49;100.00
74659;BME280;63186;51.204;6.536;2024-03-08T04:15:36;101111.66;;;0.51;100.00
74659;BME280;63186;51.204;6.536;2024-03-08T04:18:03;101117.09;;;0.51;100.00
74659;BME280;63186;51.204;6.536;2024-03-08T04:20:28;101112.59;;;0.45;100.00
74659;BME280;63186;51.204;6.536;2024-03-08T04:22:54;101113.53;;;0.39;100.00
74659;BME280;63186;51.204;6.536;2024-03-08T04:25:20;101113.44;;;0.34;100.00
74659;BME280;63186;51.204;6.536;2024-03-08T04:27:45;101103.75;;;0.26;100.00
74659;BME280;63186;51.204;6.536;2024-03-08T04:30:12;101101.41;;;0.18;100.00
74659;BME280;63186;51.204;6.536;2024-03-08T04:32:37;101103.16;;;0.12;100.00
74659;BME280;63186;51.204;6.536;2024-03-08T04:35:03;101101.84;;;0.03;100.00
74659;BME280;63186;51.204;6.536;2024-03-08T04:37:29;101089.00;;;-0.02;100.00
74659;BME280;63186;51.204;6.536;2024-03-08T04:39:57;101097.75;;;0.12;100.00
74659;BME280;63186;51.204;6.536;2024-03-08T04:42:22;101098.66;;;0.06;100.00
74659;BME280;63186;51.204;6.536;2024-03-08T04:44:48;101091.50;;;0.12;100.00
74659;BME280;63186;51.204;6.536;2024-03-08T04:47:13;101086.81;;;0.07;100.00
74659;BME280;63186;51.204;6.536;2024-03-08T04:49:39;101087.84;;;0.06;100.00
74659;BME280;63186;51.204;6.536;2024-03-08T04:52:04;101078.09;;;0.05;100.00
74659;BME280;63186;51.204;6.536;2024-03-08T04:54:30;101081.59;;;0.06;100.00
74659;BME280;63186;51.204;6.536;2024-03-08T04:56:56;101088.47;;;0.08;100.00
74659;BME280;63186;51.204;6.536;2024-03-08T04:59:21;101080.56;;;0.07;100.00
74659;BME280;63186;51.204;6.536;2024-03-08T05:01:47;101076.19;;;0.06;100.00
74659;BME280;63186;51.204;6.536;2024-03-08T05:04:13;101081.72;;;-0.01;100.00
74659;BME280;63186;51.204;6.536;2024-03-08T05:06:38;101069.13;;;-0.07;100.00
74659;BME280;63186;51.204;6.536;2024-03-08T05:09:03;101077.03;;;-0.06;100.00
74659;BME280;63186;51.204;6.536;2024-03-08T05:11:40;101071.00;;;-0.08;100.00
74659;BME280;63186;51.204;6.536;2024-03-08T05:14:05;101070.19;;;-0.08;100.00
74659;BME280;63186;51.204;6.536;2024-03-08T05:16:30;101065.69;;;-0.14;100.00
74659;BME280;63186;51.204;6.536;2024-03-08T05:18:56;101066.50;;;-0.14;100.00
74659;BME280;63186;51.204;6.536;2024-03-08T05:21:22;101067.84;;;-0.05;100.00
74659;BME280;63186;51.204;6.536;2024-03-08T05:23:47;101067.16;;;0.00;100.00
74659;BME280;63186;51.204;6.536;2024-03-08T05:26:12;101061.50;;;0.02;100.00
74659;BME280;63186;51.204;6.536;2024-03-08T05:28:39;101064.91;;;0.09;100.00
74659;BME280;63186;51.204;6.536;2024-03-08T05:31:04;101058.56;;;0.15;100.00
74659;BME280;63186;51.204;6.536;2024-03-08T05:33:30;101059.84;;;0.12;100.00
74659;BME280;63186;51.204;6.536;2024-03-08T05:35:55;101055.50;;;0.23;100.00
74659;BME280;63186;51.204;6.536;2024-03-08T05:38:21;101051.03;;;0.17;100.00
74659;BME280;63186;51.204;6.536;2024-03-08T05:40:46;101052.66;;;0.18;100.00
74659;BME280;63186;51.204;6.536;2024-03-08T05:43:11;101055.63;;;0.16;100.00
74659;BME280;63186;51.204;6.536;2024-03-08T05:45:37;101050.69;;;0.13;100.00
74659;BME280;63186;51.204;6.536;2024-03-08T05:48:03;101052.31;;;0.03;100.00
74659;BME280;63186;51.204;6.536;2024-03-08T05:50:28;101039.25;;;-0.12;100.00
74659;BME280;63186;51.204;6.536;2024-03-08T05:52:53;101046.53;;;-0.13;100.00
74659;BME280;63186;51.204;6.536;2024-03-08T05:55:19;101035.69;;;-0.24;100.00
74659;BME280;63186;51.204;6.536;2024-03-08T05:57:44;101034.97;;;-0.32;100.00
74659;BME280;63186;51.204;6.536;2024-03-08T06:00:10;101037.16;;;-0.40;100.00
74659;BME280;63186;51.204;6.536;2024-03-08T06:02:41;101035.88;;;-0.49;100.00
74659;BME280;63186;51.204;6.536;2024-03-08T06:05:08;101028.72;;;-0.44;100.00
74659;BME280;63186;51.204;6.536;2024-03-08T06:07:34;101030.94;;;-0.41;100.00
74659;BME280;63186;51.204;6.536;2024-03-08T06:09:59;101033.56;;;-0.22;100.00
74659;BME280;63186;51.204;6.536;2024-03-08T06:12:25;101031.84;;;-0.05;100.00
74659;BME280;63186;51.204;6.536;2024-03-08T06:14:54;101031.13;;;-0.01;100.00
74659;BME280;63186;51.204;6.536;2024-03-08T06:17:19;101025.25;;;0.03;100.00
74659;BME280;63186;51.204;6.536;2024-03-08T06:19:44;101022.53;;;-0.09;100.00
74659;BME280;63186;51.204;6.536;2024-03-08T06:22:11;101027.69;;;-0.31;100.00
74659;BME280;63186;51.204;6.536;2024-03-08T06:24:37;101033.19;;;-0.38;100.00
74659;BME280;63186;51.204;6.536;2024-03-08T06:27:03;101025.41;;;-0.46;100.00
74659;BME280;63186;51.204;6.536;2024-03-08T06:29:28;101028.56;;;-0.49;100.00
74659;BME280;63186;51.204;6.536;2024-03-08T06:31:54;101027.38;;;-0.53;100.00
74659;BME280;63186;51.204;6.536;2024-03-08T06:34:20;101022.09;;;-0.48;100.00
74659;BME280;63186;51.204;6.536;2024-03-08T06:36:46;101028.47;;;-0.42;100.00
74659;BME280;63186;51.204;6.536;2024-03-08T06:39:11;101027.19;;;-0.40;100.00
74659;BME280;63186;51.204;6.536;2024-03-08T06:41:37;101020.16;;;-0.29;100.00
74659;BME280;63186;51.204;6.536;2024-03-08T06:44:02;101018.88;;;-0.15;100.00
74659;BME280;63186;51.204;6.536;2024-03-08T06:46:28;101022.66;;;-0.04;100.00
74659;BME280;63186;51.204;6.536;2024-03-08T06:48:53;101019.97;;;0.08;100.00
74659;BME280;63186;51.204;6.536;2024-03-08T06:51:18;101022.66;;;0.19;100.00
74659;BME280;63186;51.204;6.536;2024-03-08T06:53:44;101023.69;;;0.53;100.00
74659;BME280;63186;51.204;6.536;2024-03-08T06:56:09;101024.66;;;0.99;100.00
74659;BME280;63186;51.204;6.536;2024-03-08T06:58:35;101022.22;;;2.27;100.00
74659;BME280;63186;51.204;6.536;2024-03-08T07:01:00;101023.84;;;3.65;95.08
74659;BME280;63186;51.204;6.536;2024-03-08T07:03:29;101030.38;;;4.80;87.54
74659;BME280;63186;51.204;6.536;2024-03-08T07:05:55;101024.25;;;5.21;81.89
74659;BME280;63186;51.204;6.536;2024-03-08T07:08:21;101022.94;;;5.54;81.33
74659;BME280;63186;51.204;6.536;2024-03-08T07:10:48;101029.28;;;5.90;78.33
74659;BME280;63186;51.204;6.536;2024-03-08T07:13:14;101022.75;;;5.96;77.58
74659;BME280;63186;51.204;6.536;2024-03-08T07:15:40;101026.78;;;6.49;75.39
74659;BME280;63186;51.204;6.536;2024-03-08T07:18:05;101026.91;;;6.94;71.03
74659;BME280;63186;51.204;6.536;2024-03-08T07:20:30;101023.97;;;7.34;71.62
74659;BME280;63186;51.204;6.536;2024-03-08T07:22:56;101027.72;;;7.88;70.22
74659;BME280;63186;51.204;6.536;2024-03-08T07:25:21;101028.66;;;8.41;68.14
74659;BME280;63186;51.204;6.536;2024-03-08T07:27:51;101025.31;;;8.45;65.28
74659;BME280;63186;51.204;6.536;2024-03-08T07:30:26;101011.94;;;8.86;64.00
74659;BME280;63186;51.204;6.536;2024-03-08T07:33:11;101011.72;;;8.82;62.33
74659;BME280;63186;51.204;6.536;2024-03-08T07:35:39;101010.56;;;8.64;65.21
74659;BME280;63186;51.204;6.536;2024-03-08T07:38:08;101008.88;;;8.68;64.49
74659;BME280;63186;51.204;6.536;2024-03-08T07:40:35;101002.63;;;8.87;63.39
74659;BME280;63186;51.204;6.536;2024-03-08T07:43:01;101003.34;;;8.92;63.74
74659;BME280;63186;51.204;6.536;2024-03-08T07:45:27;101001.97;;;8.95;63.03
74659;BME280;63186;51.204;6.536;2024-03-08T07:47:52;101003.34;;;8.92;60.46
74659;BME280;63186;51.204;6.536;2024-03-08T07:50:18;101001.34;;;9.22;60.50
74659;BME280;63186;51.204;6.536;2024-03-08T07:52:44;101004.28;;;9.25;59.15
74659;BME280;63186;51.204;6.536;2024-03-08T07:55:10;100991.53;;;9.54;59.96
74659;BME280;63186;51.204;6.536;2024-03-08T07:57:35;100987.59;;;9.41;57.60
74659;BME280;63186;51.204;6.536;2024-03-08T08:00:04;100983.97;;;9.27;58.88
74659;BME280;63186;51.204;6.536;2024-03-08T08:02:32;100995.31;;;9.58;59.36
74659;BME280;63186;51.204;6.536;2024-03-08T08:04:58;100988.34;;;9.65;58.69
74659;BME280;63186;51.204;6.536;2024-03-08T08:07:24;100977.78;;;9.72;57.59
74659;BME280;63186;51.204;6.536;2024-03-08T08:09:49;100978.97;;;9.10;58.32
74659;BME280;63186;51.204;6.536;2024-03-08T08:12:15;100981.50;;;9.25;59.56
74659;BME280;63186;51.204;6.536;2024-03-08T08:14:41;100975.94;;;9.49;58.43
74659;BME280;63186;51.204;6.536;2024-03-08T08:17:06;100973.94;;;9.87;57.33
74659;BME280;63186;51.204;6.536;2024-03-08T08:19:34;100956.97;;;9.66;56.31
74659;BME280;63186;51.204;6.536;2024-03-08T08:22:01;100959.94;;;9.70;56.96
74659;BME280;63186;51.204;6.536;2024-03-08T08:24:27;100957.25;;;8.70;59.02
74659;BME280;63186;51.204;6.536;2024-03-08T08:26:52;100945.41;;;7.30;64.05
74659;BME280;63186;51.204;6.536;2024-03-08T08:29:17;100935.91;;;8.14;64.57
74659;BME280;63186;51.204;6.536;2024-03-08T08:31:43;100936.50;;;8.83;60.24
74659;BME280;63186;51.204;6.536;2024-03-08T08:34:11;100933.69;;;8.16;62.94
74659;BME280;63186;51.204;6.536;2024-03-08T08:36:37;100918.47;;;7.42;64.37
74659;BME280;63186;51.204;6.536;2024-03-08T08:39:04;100925.28;;;6.61;69.50
74659;BME280;63186;51.204;6.536;2024-03-08T08:41:30;100923.22;;;6.17;71.95
74659;BME280;63186;51.204;6.536;2024-03-08T08:43:57;100914.28;;;5.91;71.37
74659;BME280;63186;51.204;6.536;2024-03-08T08:46:22;100910.69;;;5.86;74.15
74659;BME280;63186;51.204;6.536;2024-03-08T08:48:47;100907.13;;;5.90;73.77
74659;BME280;63186;51.204;6.536;2024-03-08T08:51:13;100905.50;;;5.99;75.30
74659;BME280;63186;51.204;6.536;2024-03-08T08:53:39;100909.88;;;6.06;74.34
74659;BME280;63186;51.204;6.536;2024-03-08T08:56:13;100889.63;;;6.12;73.70
74659;BME280;63186;51.204;6.536;2024-03-08T08:58:39;100896.19;;;6.16;74.62
74659;BME280;63186;51.204;6.536;2024-03-08T09:01:06;100889.81;;;6.41;74.48
74659;BME280;63186;51.204;6.536;2024-03-08T09:03:32;100904.25;;;6.51;74.16
74659;BME280;63186;51.204;6.536;2024-03-08T09:06:00;100880.72;;;6.50;72.04
74659;BME280;63186;51.204;6.536;2024-03-08T09:08:25;100898.00;;;6.46;73.42
74659;BME280;63186;51.204;6.536;2024-03-08T09:10:51;100889.94;;;6.65;72.21
74659;BME280;63186;51.204;6.536;2024-03-08T09:13:16;100887.78;;;6.62;71.40
74659;BME280;63186;51.204;6.536;2024-03-08T09:15:42;100882.47;;;6.86;72.10
74659;BME280;63186;51.204;6.536;2024-03-08T09:18:07;100889.94;;;7.48;69.54
74659;BME280;63186;51.204;6.536;2024-03-08T09:20:34;100880.72;;;8.88;63.38
74659;BME280;63186;51.204;6.536;2024-03-08T09:22:59;100888.66;;;9.60;59.46
74659;BME280;63186;51.204;6.536;2024-03-08T09:25:25;100864.94;;;9.77;56.76
74659;BME280;63186;51.204;6.536;2024-03-08T09:27:51;100872.44;;;10.04;57.23
74659;BME280;63186;51.204;6.536;2024-03-08T09:30:16;100876.41;;;10.67;55.90
74659;BME280;63186;51.204;6.536;2024-03-08T09:32:43;100870.81;;;11.31;55.64
74659;BME280;63186;51.204;6.536;2024-03-08T09:35:09;100872.47;;;11.18;52.28
74659;BME280;63186;51.204;6.536;2024-03-08T09:37:34;100868.09;;;10.45;53.44
74659;BME280;63186;51.204;6.536;2024-03-08T09:40:00;100849.41;;;9.87;54.20
74659;BME280;63186;51.204;6.536;2024-03-08T09:42:29;100861.16;;;10.33;54.63
74659;BME280;63186;51.204;6.536;2024-03-08T09:44:55;100862.66;;;11.79;53.32
74659;BME280;63186;51.204;6.536;2024-03-08T09:47:21;100846.59;;;12.04;50.25
74659;BME280;63186;51.204;6.536;2024-03-08T09:49:48;100852.88;;;11.42;50.97
74659;BME280;63186;51.204;6.536;2024-03-08T09:52:14;100837.22;;;11.06;53.09
74659;BME280;63186;51.204;6.536;2024-03-08T09:54:40;100834.19;;;10.72;53.16
74659;BME280;63186;51.204;6.536;2024-03-08T09:57:09;100835.03;;;10.58;53.26
74659;BME280;63186;51.204;6.536;2024-03-08T09:59:35;100818.47;;;10.72;54.11
74659;BME280;63186;51.204;6.536;2024-03-08T10:02:01;100839.47;;;10.68;53.74
74659;BME280;63186;51.204;6.536;2024-03-08T10:04:28;100830.03;;;11.19;52.79
74659;BME280;63186;51.204;6.536;2024-03-08T10:06:57;100821.63;;;11.24;52.96
74659;BME280;63186;51.204;6.536;2024-03-08T10:09:24;100819.38;;;11.26;52.70
74659;BME280;63186;51.204;6.536;2024-03-08T10:11:55;100817.16;;;10.56;53.28
74659;BME280;63186;51.204;6.536;2024-03-08T10:14:21;100809.34;;;10.49;52.92
74659;BME280;63186;51.204;6.536;2024-03-08T10:16:46;100809.91;;;10.24;53.69
74659;BME280;63186;51.204;6.536;2024-03-08T10:19:12;100802.75;;;10.23;54.28
74659;BME280;63186;51.204;6.536;2024-03-08T10:21:50;100801.41;;;10.20;54.18
74659;BME280;63186;51.204;6.536;2024-03-08T10:24:18;100799.34;;;10.53;53.97
74659;BME280;63186;51.204;6.536;2024-03-08T10:26:43;100791.22;;;10.35;54.58
74659;BME280;63186;51.204;6.536;2024-03-08T10:29:09;100793.91;;;10.62;54.89
74659;BME280;63186;51.204;6.536;2024-03-08T10:31:34;100773.78;;;10.75;54.34
74659;BME280;63186;51.204;6.536;2024-03-08T10:34:01;100763.91;;;10.74;53.14
74659;BME280;63186;51.204;6.536;2024-03-08T10:36:28;100770.84;;;10.08;55.80
74659;BME280;63186;51.204;6.536;2024-03-08T10:38:53;100770.19;;;10.52;56.01
74659;BME280;63186;51.204;6.536;2024-03-08T10:41:19;100772.19;;;10.11;55.81
74659;BME280;63186;51.204;6.536;2024-03-08T10:44:23;100770.78;;;9.99;55.93
74659;BME280;63186;51.204;6.536;2024-03-08T10:49:20;100746.22;;;9.62;54.64
74659;BME280;63186;51.204;6.536;2024-03-08T10:51:50;100758.09;;;9.30;55.02
74659;BME280;63186;51.204;6.536;2024-03-08T10:54:18;100739.66;;;9.16;55.22
74659;BME280;63186;51.204;6.536;2024-03-08T10:56:47;100743.69;;;9.05;56.07
74659;BME280;63186;51.204;6.536;2024-03-08T10:59:14;100749.53;;;9.17;56.89
74659;BME280;63186;51.204;6.536;2024-03-08T11:01:40;100737.56;;;9.41;57.02
74659;BME280;63186;51.204;6.536;2024-03-08T11:04:05;100735.16;;;9.67;57.25
74659;BME280;63186;51.204;6.536;2024-03-08T11:06:42;100728.03;;;9.66;56.09
74659;BME280;63186;51.204;6.536;2024-03-08T11:09:30;100722.22;;;9.67;56.25
74659;BME280;63186;51.204;6.536;2024-03-08T11:12:27;100710.00;;;9.46;58.24
74659;BME280;63186;51.204;6.536;2024-03-08T11:15:01;100716.63;;;9.59;57.94
74659;BME280;63186;51.204;6.536;2024-03-08T11:19:58;100699.81;;;9.33;57.56
74659;BME280;63186;51.204;6.536;2024-03-08T11:22:28;100705.41;;;9.41;60.25
74659;BME280;63186;51.204;6.536;2024-03-08T11:25:02;100700.63;;;9.47;56.90
74659;BME280;63186;51.204;6.536;2024-03-08T11:27:31;100700.00;;;9.36;56.41
74659;BME280;63186;51.204;6.536;2024-03-08T11:30:00;100697.97;;;9.28;57.50
74659;BME280;63186;51.204;6.536;2024-03-08T11:32:29;100691.25;;;9.34;56.87
74659;BME280;63186;51.204;6.536;2024-03-08T11:34:55;100685.75;;;9.20;56.87
74659;BME280;63186;51.204;6.536;2024-03-08T11:37:21;100680.03;;;9.17;57.73
74659;BME280;63186;51.204;6.536;2024-03-08T11:39:48;100685.44;;;9.22;56.60
74659;BME280;63186;51.204;6.536;2024-03-08T11:42:14;100678.53;;;9.24;57.71
74659;BME280;63186;51.204;6.536;2024-03-08T11:44:42;100664.28;;;9.36;57.11
74659;BME280;63186;51.204;6.536;2024-03-08T11:47:12;100674.47;;;9.36;55.67
74659;BME280;63186;51.204;6.536;2024-03-08T11:49:38;100675.50;;;9.26;56.02
74659;BME280;63186;51.204;6.536;2024-03-08T11:52:04;100655.94;;;9.14;56.41
74659;BME280;63186;51.204;6.536;2024-03-08T11:54:30;100660.91;;;9.25;56.47
74659;BME280;63186;51.204;6.536;2024-03-08T11:56:59;100651.69;;;9.35;59.26
74659;BME280;63186;51.204;6.536;2024-03-08T11:59:28;100662.56;;;9.40;58.11
74659;BME280;63186;51.204;6.536;2024-03-08T12:02:04;100664.19;;;9.55;61.18
74659;BME280;63186;51.204;6.536;2024-03-08T12:04:31;100658.59;;;9.60;58.71
74659;BME280;63186;51.204;6.536;2024-03-08T12:06:59;100638.75;;;9.49;55.79
74659;BME280;63186;51.204;6.536;2024-03-08T12:09:34;100644.44;;;9.53;60.87
74659;BME280;63186;51.204;6.536;2024-03-08T12:12:01;100633.84;;;9.60;57.71
74659;BME280;63186;51.204;6.536;2024-03-08T12:14:28;100626.91;;;9.63;58.62
74659;BME280;63186;51.204;6.536;2024-03-08T12:16:54;100637.13;;;9.48;55.62
74659;BME280;63186;51.204;6.536;2024-03-08T12:19:19;100632.44;;;9.49;59.55
74659;BME280;63186;51.204;6.536;2024-03-08T12:21:45;100606.59;;;9.50;55.15
74659;BME280;63186;51.204;6.536;2024-03-08T12:24:16;100610.94;;;9.51;57.01
74659;BME280;63186;51.204;6.536;2024-03-08T12:26:46;100619.19;;;9.51;57.38
74659;BME280;63186;51.204;6.536;2024-03-08T12:31:57;100602.28;;;9.58;55.75
74659;BME280;63186;51.204;6.536;2024-03-08T12:34:24;100612.47;;;9.57;57.31
74659;BME280;63186;51.204;6.536;2024-03-08T12:36:51;100598.19;;;9.69;57.32
74659;BME280;63186;51.204;6.536;2024-03-08T12:39:19;100593.19;;;9.71;56.04
74659;BME280;63186;51.204;6.536;2024-03-08T12:41:52;100587.03;;;9.51;57.89
74659;BME280;63186;51.204;6.536;2024-03-08T12:44:18;100600.47;;;9.53;55.94
74659;BME280;63186;51.204;6.536;2024-03-08T12:46:47;100581.13;;;9.58;55.65
74659;BME280;63186;51.204;6.536;2024-03-08T12:49:13;100577.84;;;9.70;58.17
74659;BME280;63186;51.204;6.536;2024-03-08T12:51:45;100585.47;;;9.73;56.33
74659;BME280;63186;51.204;6.536;2024-03-08T12:54:11;100578.97;;;9.69;55.01
74659;BME280;63186;51.204;6.536;2024-03-08T12:56:37;100568.47;;;9.71;56.23
74659;BME280;63186;51.204;6.536;2024-03-08T12:59:07;100567.75;;;9.79;56.22
74659;BME280;63186;51.204;6.536;2024-03-08T13:01:33;100560.44;;;9.74;53.99